Time;durP1;ratioP1;P1;durP2;ratioP2;P2;SDS_P1;SDS_P2;PMS_P1;PMS_P2;Temp;Humidity;BMP_temperature;BMP_pressure;BME280_temperature;BME280_humidity;BME280_pressure;Samples;Min_cycle;Max_cycle;Signal;HPM_P1;HPM_P2
2022/10/10 00:02:16;;;;;;;7.95;4.57;;;;;;;;;;5013152;28;20266;-64
2022/10/10 00:04:41;;;;;;;7.60;4.10;;;;;;;;;;5012564;28;20251;-64
2022/10/10 00:07:06;;;;;;;10.50;4.47;;;;;;;;;;5013161;28;20590;-64
2022/10/10 00:09:32;;;;;;;7.07;4.22;;;;;;;;;;5013252;28;20572;-64
2022/10/10 00:11:57;;;;;;;9.25;4.53;;;;;;;;;;5012809;28;20223;-64
2022/10/10 00:14:22;;;;;;;7.20;3.92;;;;;;;;;;5012791;28;20559;-64
2022/10/10 00:16:47;;;;;;;9.90;4.40;;;;;;;;;;5012728;28;20299;-64
2022/10/10 00:19:13;;;;;;;8.88;4.20;;;;;;;;;;5012668;28;20224;-64
2022/10/10 00:21:38;;;;;;;9.43;4.40;;;;;;;;;;5013403;28;20234;-64
2022/10/10 00:24:03;;;;;;;9.38;4.18;;;;;;;;;;5012045;28;20209;-64
2022/10/10 00:26:29;;;;;;;8.82;4.25;;;;;;;;;;5013262;28;20228;-64
2022/10/10 00:28:54;;;;;;;7.55;4.30;;;;;;;;;;5013063;28;20637;-64
2022/10/10 00:31:19;;;;;;;7.97;3.85;;;;;;;;;;5011759;28;20254;-65
2022/10/10 00:33:45;;;;;;;7.78;4.25;;;;;;;;;;5013152;28;20278;-64
2022/10/10 00:36:10;;;;;;;9.02;4.40;;;;;;;;;;5011011;28;20224;-64
2022/10/10 00:38:35;;;;;;;7.30;3.75;;;;;;;;;;5012390;28;20244;-64
2022/10/10 00:41:01;;;;;;;8.35;4.07;;;;;;;;;;5012391;28;20227;-64
2022/10/10 00:43:26;;;;;;;7.57;4.40;;;;;;;;;;5027899;28;20680;-64
2022/10/10 00:45:51;;;;;;;7.15;3.90;;;;;;;;;;5012043;28;20221;-64
2022/10/10 00:48:18;;;;;;;8.07;4.25;;;;;;;;;;5012480;28;20298;-64
2022/10/10 00:50:45;;;;;;;8.18;4.15;;;;;;;;;;5012741;28;20602;-64
2022/10/10 00:53:10;;;;;;;7.00;3.80;;;;;;;;;;5011766;28;20212;-64
2022/10/10 00:55:35;;;;;;;6.05;3.60;;;;;;;;;;5012645;28;20593;-64
2022/10/10 00:58:01;;;;;;;9.45;3.88;;;;;;;;;;5012082;28;20212;-64
2022/10/10 01:00:27;;;;;;;8.23;4.35;;;;;;;;;;5010739;28;20208;-64
2022/10/10 01:02:52;;;;;;;8.27;4.10;;;;;;;;;;5012812;28;20221;-64
2022/10/10 01:05:17;;;;;;;11.07;4.38;;;;;;;;;;5012241;28;20694;-64
2022/10/10 01:07:43;;;;;;;10.20;4.60;;;;;;;;;;5012053;28;20221;-64
2022/10/10 01:10:09;;;;;;;7.80;4.25;;;;;;;;;;5015105;28;20223;-64
2022/10/10 01:12:50;;;;;;;10.75;4.13;;;;;;;;;;5018020;28;20223;-64
2022/10/10 01:15:34;;;;;;;7.45;4.00;;;;;;;;;;5017880;28;20603;-64
2022/10/10 01:18:03;;;;;;;8.23;4.63;;;;;;;;;;5017786;28;20287;-64
2022/10/10 01:20:40;;;;;;;7.43;4.10;;;;;;;;;;5017925;28;20215;-64
2022/10/10 01:23:24;;;;;;;8.70;3.95;;;;;;;;;;5018640;28;20999;-64
2022/10/10 01:26:01;;;;;;;9.32;3.90;;;;;;;;;;5018759;28;20270;-64
2022/10/10 01:28:32;;;;;;;7.25;3.65;;;;;;;;;;5017807;28;20299;-64
2022/10/10 01:30:58;;;;;;;9.27;4.20;;;;;;;;;;5018878;28;20220;-65
2022/10/10 01:33:31;;;;;;;7.90;4.13;;;;;;;;;;5017496;28;20208;-63
2022/10/10 01:36:33;;;;;;;8.15;3.83;;;;;;;;;;4992283;28;20247;-63
2022/10/10 01:39:01;;;;;;;6.68;4.05;;;;;;;;;;5006040;28;20214;-63
2022/10/10 01:41:30;;;;;;;5.82;3.53;;;;;;;;;;5008008;28;20212;-63
2022/10/10 01:43:55;;;;;;;8.60;4.30;;;;;;;;;;5007569;28;20208;-63
2022/10/10 01:46:20;;;;;;;8.63;4.18;;;;;;;;;;5003916;28;20740;-63
2022/10/10 01:48:47;;;;;;;8.38;4.20;;;;;;;;;;4995759;28;20224;-63
2022/10/10 01:51:13;;;;;;;7.80;4.32;;;;;;;;;;4999131;28;20471;-63
2022/10/10 01:53:42;;;;;;;8.18;4.28;;;;;;;;;;5004716;28;20223;-63
2022/10/10 01:56:09;;;;;;;7.28;3.97;;;;;;;;;;5005065;28;20209;-63
2022/10/10 01:58:34;;;;;;;7.25;3.95;;;;;;;;;;5006350;28;20271;-63
2022/10/10 02:00:59;;;;;;;8.85;4.53;;;;;;;;;;5007572;28;20240;-63
2022/10/10 02:03:26;;;;;;;6.78;4.03;;;;;;;;;;5006640;28;20818;-63
2022/10/10 02:05:52;;;;;;;7.55;4.50;;;;;;;;;;5007286;28;20212;-63
2022/10/10 02:08:20;;;;;;;8.52;4.38;;;;;;;;;;5003103;28;20220;-63
2022/10/10 02:10:47;;;;;;;11.18;4.20;;;;;;;;;;4998428;28;20667;-60
2022/10/10 02:13:13;;;;;;;6.35;3.83;;;;;;;;;;4999046;28;20306;-63
2022/10/10 02:15:40;;;;;;;6.55;4.00;;;;;;;;;;5001809;28;20671;-63
2022/10/10 02:18:05;;;;;;;7.68;4.57;;;;;;;;;;5005112;28;20291;-63
2022/10/10 02:20:30;;;;;;;8.80;4.35;;;;;;;;;;5007319;28;20315;-63
2022/10/10 02:22:56;;;;;;;7.40;4.55;;;;;;;;;;5003380;28;20711;-63
2022/10/10 02:25:22;;;;;;;9.93;4.30;;;;;;;;;;5002224;28;20295;-63
2022/10/10 02:27:51;;;;;;;8.05;4.47;;;;;;;;;;5002426;28;20311;-63
2022/10/10 02:30:16;;;;;;;6.70;4.43;;;;;;;;;;5001399;28;20232;-63
2022/10/10 02:32:45;;;;;;;10.45;4.35;;;;;;;;;;4995334;28;20204;-63
2022/10/10 02:35:12;;;;;;;8.75;4.25;;;;;;;;;;4994659;28;20593;-63
2022/10/10 02:37:38;;;;;;;7.65;4.35;;;;;;;;;;4994722;28;20626;-63
2022/10/10 02:40:04;;;;;;;7.93;4.40;;;;;;;;;;5002487;28;20707;-64
2022/10/10 02:42:29;;;;;;;8.55;4.47;;;;;;;;;;5003866;28;20204;-63
2022/10/10 02:44:55;;;;;;;8.32;4.22;;;;;;;;;;5003889;28;20217;-63
2022/10/10 02:47:20;;;;;;;8.10;4.32;;;;;;;;;;5001042;28;20571;-63
2022/10/10 02:49:45;;;;;;;7.93;4.70;;;;;;;;;;5004023;28;20296;-63
2022/10/10 02:52:11;;;;;;;8.68;4.57;;;;;;;;;;5002951;28;20229;-63
2022/10/10 02:54:36;;;;;;;8.70;4.40;;;;;;;;;;4996663;28;20231;-63
2022/10/10 02:57:02;;;;;;;8.20;4.57;;;;;;;;;;4995317;28;20212;-63
2022/10/10 02:59:27;;;;;;;7.35;3.90;;;;;;;;;;4994737;28;20220;-63
2022/10/10 03:01:52;;;;;;;8.45;4.20;;;;;;;;;;5001052;28;20291;-63
2022/10/10 03:04:17;;;;;;;7.25;3.90;;;;;;;;;;5003136;28;20216;-63
2022/10/10 03:06:43;;;;;;;8.63;4.50;;;;;;;;;;5003702;28;20232;-63
2022/10/10 03:09:08;;;;;;;8.82;4.80;;;;;;;;;;5003041;28;20250;-63
2022/10/10 03:11:33;;;;;;;8.27;4.43;;;;;;;;;;5003782;28;20212;-63
2022/10/10 03:13:58;;;;;;;9.32;4.40;;;;;;;;;;5002654;28;20295;-63
2022/10/10 03:16:24;;;;;;;9.32;4.22;;;;;;;;;;4999195;28;20216;-63
2022/10/10 03:18:49;;;;;;;7.90;4.30;;;;;;;;;;4995680;28;20604;-63
2022/10/10 03:21:14;;;;;;;8.77;4.60;;;;;;;;;;4994685;28;20212;-63
2022/10/10 03:23:40;;;;;;;8.85;4.18;;;;;;;;;;4998685;28;20220;-63
2022/10/10 03:26:05;;;;;;;6.88;4.32;;;;;;;;;;5003094;28;20217;-63
2022/10/10 03:28:30;;;;;;;7.13;4.30;;;;;;;;;;5002374;28;20282;-63
2022/10/10 03:30:56;;;;;;;8.05;4.60;;;;;;;;;;5002867;28;20228;-63
2022/10/10 03:33:21;;;;;;;8.52;4.45;;;;;;;;;;5002162;28;20680;-63
2022/10/10 03:35:46;;;;;;;9.05;4.80;;;;;;;;;;5002182;28;20216;-63
2022/10/10 03:38:12;;;;;;;8.70;4.43;;;;;;;;;;5001687;28;20595;-63
2022/10/10 03:40:38;;;;;;;9.52;4.78;;;;;;;;;;4995603;28;20216;-63
2022/10/10 03:43:04;;;;;;;10.55;4.32;;;;;;;;;;4994555;28;20270;-63
2022/10/10 03:45:29;;;;;;;8.93;4.28;;;;;;;;;;4995940;28;20576;-63
2022/10/10 03:47:54;;;;;;;8.45;4.72;;;;;;;;;;5002042;28;20655;-63
2022/10/10 03:50:19;;;;;;;7.20;4.07;;;;;;;;;;5003347;28;20302;-63
2022/10/10 03:52:45;;;;;;;7.57;4.38;;;;;;;;;;5004161;28;20216;-63
2022/10/10 03:55:10;;;;;;;7.75;4.40;;;;;;;;;;5002980;28;20220;-63
2022/10/10 03:57:35;;;;;;;9.40;4.57;;;;;;;;;;5004163;28;20219;-63
2022/10/10 04:00:00;;;;;;;11.43;5.00;;;;;;;;;;5003107;28;20232;-63
2022/10/10 04:02:26;;;;;;;9.65;4.30;;;;;;;;;;4997254;28;20231;-63
2022/10/10 04:04:51;;;;;;;8.82;4.40;;;;;;;;;;4991399;28;20222;-63
2022/10/10 04:07:16;;;;;;;8.93;4.80;;;;;;;;;;4994335;28;20507;-63
2022/10/10 04:09:41;;;;;;;6.85;4.35;;;;;;;;;;5000380;28;20213;-63
2022/10/10 04:12:07;;;;;;;7.35;4.15;;;;;;;;;;5001876;28;20879;-63
2022/10/10 04:14:32;;;;;;;9.10;4.80;;;;;;;;;;5002425;28;20216;-63
2022/10/10 04:16:57;;;;;;;9.35;4.72;;;;;;;;;;5001592;28;20213;-62
2022/10/10 04:19:22;;;;;;;7.80;4.43;;;;;;;;;;5001543;28;20664;-63
2022/10/10 04:21:48;;;;;;;8.65;4.90;;;;;;;;;;5002408;28;20220;-63
2022/10/10 04:24:13;;;;;;;8.65;4.45;;;;;;;;;;4998268;28;20208;-63
2022/10/10 04:26:38;;;;;;;8.23;4.65;;;;;;;;;;4994622;28;20234;-63
2022/10/10 04:29:03;;;;;;;8.52;5.03;;;;;;;;;;4993918;28;20250;-63
2022/10/10 04:31:29;;;;;;;7.38;4.72;;;;;;;;;;4997172;28;20208;-62
2022/10/10 04:33:54;;;;;;;9.32;4.47;;;;;;;;;;5001687;28;20217;-63
2022/10/10 04:36:19;;;;;;;10.90;5.07;;;;;;;;;;5001717;28;22554;-63
2022/10/10 04:38:44;;;;;;;7.80;4.47;;;;;;;;;;5001561;28;20216;-63
2022/10/10 04:41:10;;;;;;;7.32;4.60;;;;;;;;;;5001305;28;20216;-63
2022/10/10 04:43:35;;;;;;;7.68;4.63;;;;;;;;;;5002088;28;20273;-63
2022/10/10 04:46:00;;;;;;;7.72;4.82;;;;;;;;;;4998992;28;20219;-63
2022/10/10 04:48:26;;;;;;;9.18;5.05;;;;;;;;;;4994312;28;20798;-63
2022/10/10 04:50:51;;;;;;;7.63;4.72;;;;;;;;;;4994205;28;20679;-63
2022/10/10 04:53:17;;;;;;;9.85;4.93;;;;;;;;;;4993361;28;20219;-63
2022/10/10 04:55:42;;;;;;;9.80;4.75;;;;;;;;;;5002245;28;20725;-63
2022/10/10 04:58:07;;;;;;;7.18;5.05;;;;;;;;;;5000782;28;20228;-63
2022/10/10 05:00:33;;;;;;;8.88;5.25;;;;;;;;;;5001570;28;20586;-63
2022/10/10 05:02:58;;;;;;;9.73;4.68;;;;;;;;;;5001259;28;20263;-63
2022/10/10 05:05:23;;;;;;;7.57;4.43;;;;;;;;;;5000776;28;20212;-63
2022/10/10 05:07:49;;;;;;;8.15;4.88;;;;;;;;;;5001538;28;20232;-62
2022/10/10 05:10:14;;;;;;;8.77;4.85;;;;;;;;;;4995631;28;20212;-62
2022/10/10 05:12:39;;;;;;;9.07;4.47;;;;;;;;;;4992933;28;20320;-63
2022/10/10 05:15:05;;;;;;;10.15;4.97;;;;;;;;;;4993031;28;20212;-63
2022/10/10 05:17:30;;;;;;;7.72;4.80;;;;;;;;;;4999158;28;20690;-63
2022/10/10 05:19:55;;;;;;;12.15;5.10;;;;;;;;;;5001264;28;20221;-63
2022/10/10 05:22:21;;;;;;;8.13;5.10;;;;;;;;;;5001215;28;20575;-62
2022/10/10 05:24:46;;;;;;;7.90;4.97;;;;;;;;;;5001535;28;21464;-62
2022/10/10 05:27:11;;;;;;;8.90;5.03;;;;;;;;;;5000748;28;20697;-63
2022/10/10 05:29:36;;;;;;;13.40;5.30;;;;;;;;;;5001257;28;20506;-63
2022/10/10 05:32:02;;;;;;;11.27;4.95;;;;;;;;;;4997685;28;20671;-63
2022/10/10 05:34:27;;;;;;;9.38;5.47;;;;;;;;;;4994001;28;20297;-63
2022/10/10 05:36:55;;;;;;;7.88;4.80;;;;;;;;;;4993760;28;20482;-63
2022/10/10 05:39:20;;;;;;;8.23;4.70;;;;;;;;;;4997049;28;24104;-62
2022/10/10 05:41:46;;;;;;;9.70;5.78;;;;;;;;;;5000895;28;20278;-63
2022/10/10 05:44:11;;;;;;;8.20;5.05;;;;;;;;;;4999640;28;20250;-63
2022/10/10 05:46:36;;;;;;;8.95;5.20;;;;;;;;;;5001025;28;20235;-62
2022/10/10 05:49:01;;;;;;;8.00;5.00;;;;;;;;;;5000426;28;20608;-62
2022/10/10 05:51:27;;;;;;;10.13;5.00;;;;;;;;;;5001139;28;20228;-62
2022/10/10 05:53:52;;;;;;;8.65;4.93;;;;;;;;;;5000334;28;20259;-62
2022/10/10 05:56:17;;;;;;;9.13;4.82;;;;;;;;;;4992851;28;20507;-63
2022/10/10 05:58:43;;;;;;;9.10;4.85;;;;;;;;;;4997275;28;20271;-62
2022/10/10 06:01:08;;;;;;;11.23;5.60;;;;;;;;;;4997580;28;20573;-63
2022/10/10 06:03:34;;;;;;;8.90;4.80;;;;;;;;;;5011431;28;20220;-61
2022/10/10 06:05:59;;;;;;;9.50;5.05;;;;;;;;;;5015049;28;20334;-62
2022/10/10 06:08:24;;;;;;;11.18;5.00;;;;;;;;;;5013602;28;20726;-64
2022/10/10 06:10:49;;;;;;;10.45;5.07;;;;;;;;;;5011052;28;20282;-64
2022/10/10 06:13:15;;;;;;;11.07;5.00;;;;;;;;;;5021545;28;20435;-63
2022/10/10 06:15:40;;;;;;;11.15;4.65;;;;;;;;;;5017065;28;20215;-64
2022/10/10 06:18:07;;;;;;;8.63;4.95;;;;;;;;;;5018996;28;20215;-64
2022/10/10 06:20:34;;;;;;;9.60;4.53;;;;;;;;;;5023490;28;20228;-64
2022/10/10 06:22:59;;;;;;;8.30;4.78;;;;;;;;;;5019025;28;20216;-64
2022/10/10 06:25:24;;;;;;;8.07;5.25;;;;;;;;;;5021363;28;20258;-64
2022/10/10 06:27:50;;;;;;;9.35;4.97;;;;;;;;;;5021748;28;20255;-64
2022/10/10 06:30:15;;;;;;;8.30;5.10;;;;;;;;;;5019787;28;20225;-64
2022/10/10 06:32:41;;;;;;;9.25;5.30;;;;;;;;;;5019249;28;20288;-64
2022/10/10 06:35:06;;;;;;;8.35;4.30;;;;;;;;;;5016660;28;20224;-63
2022/10/10 06:37:32;;;;;;;8.00;4.60;;;;;;;;;;5018555;28;20686;-63
2022/10/10 06:39:57;;;;;;;11.10;4.72;;;;;;;;;;5018453;28;20215;-63
2022/10/10 06:42:22;;;;;;;11.32;4.90;;;;;;;;;;5015779;28;20670;-63
2022/10/10 06:44:47;;;;;;;11.23;5.32;;;;;;;;;;5017359;28;20208;-63
2022/10/10 06:47:13;;;;;;;10.68;5.55;;;;;;;;;;5016984;28;20306;-63
2022/10/10 06:49:38;;;;;;;12.48;5.60;;;;;;;;;;5018198;28;20205;-63
2022/10/10 06:52:03;;;;;;;9.20;5.57;;;;;;;;;;5017303;28;20681;-62
2022/10/10 06:54:29;;;;;;;9.55;5.50;;;;;;;;;;5017088;28;20220;-63
2022/10/10 06:56:54;;;;;;;10.05;5.10;;;;;;;;;;5016669;28;20196;-63
2022/10/10 06:59:19;;;;;;;10.87;5.93;;;;;;;;;;5017685;28;20442;-63
2022/10/10 07:01:45;;;;;;;8.65;4.63;;;;;;;;;;5034518;28;20239;-63
2022/10/10 07:04:11;;;;;;;10.70;5.10;;;;;;;;;;5019858;28;20655;-63
2022/10/10 07:06:36;;;;;;;10.63;5.32;;;;;;;;;;5013601;28;20220;-63
2022/10/10 07:09:01;;;;;;;11.30;5.30;;;;;;;;;;5012566;28;20630;-63
2022/10/10 07:11:27;;;;;;;10.80;5.25;;;;;;;;;;5014027;28;20340;-63
2022/10/10 07:13:53;;;;;;;11.15;4.90;;;;;;;;;;5013745;28;20211;-63
2022/10/10 07:16:18;;;;;;;10.48;5.60;;;;;;;;;;5013811;28;20282;-63
2022/10/10 07:18:43;;;;;;;9.20;4.55;;;;;;;;;;5018151;28;20570;-63
2022/10/10 07:21:09;;;;;;;9.15;5.15;;;;;;;;;;5018171;28;20307;-63
2022/10/10 07:23:35;;;;;;;8.25;4.50;;;;;;;;;;5017996;28;20201;-63
2022/10/10 07:26:02;;;;;;;9.98;5.53;;;;;;;;;;5012294;28;20220;-63
2022/10/10 07:28:27;;;;;;;7.90;4.90;;;;;;;;;;5014983;28;20209;-63
2022/10/10 07:30:58;;;;;;;9.02;4.50;;;;;;;;;;5014224;28;20212;-64
2022/10/10 07:33:23;;;;;;;8.27;4.22;;;;;;;;;;5009538;28;20224;-64
2022/10/10 07:35:54;;;;;;;8.32;4.03;;;;;;;;;;5014031;28;20205;-63
2022/10/10 07:38:19;;;;;;;8.15;4.10;;;;;;;;;;5013553;28;20236;-62
2022/10/10 07:40:45;;;;;;;6.95;4.10;;;;;;;;;;5013252;28;20827;-63
2022/10/10 07:43:10;;;;;;;8.00;4.05;;;;;;;;;;5023291;28;20219;-63
2022/10/10 07:45:36;;;;;;;7.95;4.50;;;;;;;;;;5033651;28;20249;-63
2022/10/10 07:48:01;;;;;;;7.30;3.80;;;;;;;;;;5012584;28;20229;-63
2022/10/10 07:50:26;;;;;;;8.60;4.07;;;;;;;;;;5012564;28;20297;-64
2022/10/10 07:52:52;;;;;;;8.70;4.38;;;;;;;;;;5033393;28;20215;-63
2022/10/10 07:55:17;;;;;;;11.10;4.15;;;;;;;;;;5020349;28;20577;-64
2022/10/10 07:57:42;;;;;;;6.95;4.18;;;;;;;;;;5013459;28;20232;-64
2022/10/10 08:00:08;;;;;;;7.35;4.10;;;;;;;;;;5012819;28;20259;-64
2022/10/10 08:02:33;;;;;;;8.05;4.15;;;;;;;;;;5012733;28;20255;-63
2022/10/10 08:04:58;;;;;;;8.02;4.18;;;;;;;;;;5013417;28;20209;-63
2022/10/10 08:07:24;;;;;;;9.70;4.20;;;;;;;;;;5012798;28;20216;-63
2022/10/10 08:09:49;;;;;;;8.10;4.10;;;;;;;;;;5012571;28;20236;-64
2022/10/10 08:12:14;;;;;;;9.18;4.40;;;;;;;;;;5012921;28;20212;-63
2022/10/10 08:14:39;;;;;;;11.23;4.10;;;;;;;;;;5013014;28;20212;-63
2022/10/10 08:17:05;;;;;;;9.27;4.32;;;;;;;;;;5012265;28;20602;-64
2022/10/10 08:19:30;;;;;;;8.18;4.07;;;;;;;;;;5012275;28;20216;-64
2022/10/10 08:21:55;;;;;;;7.93;4.55;;;;;;;;;;5012599;28;20263;-63
2022/10/10 08:24:21;;;;;;;8.55;4.00;;;;;;;;;;5011930;28;20544;-63
2022/10/10 08:26:46;;;;;;;8.98;4.38;;;;;;;;;;5013250;28;20232;-64
2022/10/10 08:29:11;;;;;;;6.85;4.13;;;;;;;;;;5012213;28;20216;-64
2022/10/10 08:31:37;;;;;;;8.05;4.20;;;;;;;;;;5012696;28;20221;-64
2022/10/10 08:34:02;;;;;;;8.48;4.22;;;;;;;;;;5012566;28;20216;-64
2022/10/10 08:36:27;;;;;;;13.70;5.13;;;;;;;;;;5012343;28;20294;-64
2022/10/10 08:38:56;;;;;;;9.27;4.72;;;;;;;;;;5012902;28;20223;-64
2022/10/10 08:41:31;;;;;;;9.35;4.72;;;;;;;;;;5012132;28;20274;-64
2022/10/10 08:43:57;;;;;;;10.77;5.03;;;;;;;;;;5012215;28;20227;-64
2022/10/10 08:46:43;;;;;;;9.52;4.78;;;;;;;;;;5012023;28;20225;-64
2022/10/10 08:49:17;;;;;;;11.77;4.55;;;;;;;;;;5011163;28;20239;-64
2022/10/10 08:51:42;;;;;;;9.32;4.97;;;;;;;;;;5010657;28;20244;-64
2022/10/10 08:54:07;;;;;;;9.43;4.60;;;;;;;;;;5010504;28;20243;-64
2022/10/10 08:56:32;;;;;;;9.38;4.53;;;;;;;;;;5011455;28;20667;-64
2022/10/10 08:59:05;;;;;;;9.95;4.63;;;;;;;;;;5011794;28;20252;-64
2022/10/10 09:01:32;;;;;;;11.18;5.05;;;;;;;;;;5012262;28;20295;-64
2022/10/10 09:03:59;;;;;;;7.80;4.72;;;;;;;;;;5011366;28;20212;-63
2022/10/10 09:06:29;;;;;;;8.77;4.53;;;;;;;;;;5010101;28;20220;-64
2022/10/10 09:08:57;;;;;;;8.48;4.70;;;;;;;;;;5012468;28;20221;-64
2022/10/10 09:11:32;;;;;;;10.48;4.47;;;;;;;;;;5011409;28;20266;-64
2022/10/10 09:14:16;;;;;;;13.63;4.75;;;;;;;;;;5012091;28;20208;-64
2022/10/10 09:16:44;;;;;;;8.75;4.65;;;;;;;;;;5003615;28;20271;-65
2022/10/10 09:19:22;;;;;;;9.02;4.82;;;;;;;;;;4993575;28;20680;-65
2022/10/10 09:21:48;;;;;;;11.18;4.88;;;;;;;;;;4996864;28;20216;-64
2022/10/10 09:24:21;;;;;;;8.23;4.63;;;;;;;;;;4997256;28;20699;-63
2022/10/10 09:26:48;;;;;;;12.05;4.80;;;;;;;;;;5004488;28;20236;-63
2022/10/10 09:29:22;;;;;;;9.00;4.57;;;;;;;;;;5005846;28;20304;-63
2022/10/10 09:31:49;;;;;;;13.10;5.00;;;;;;;;;;5007626;28;20235;-64
2022/10/10 09:34:20;;;;;;;9.80;4.82;;;;;;;;;;5009109;28;20244;-64
2022/10/10 09:36:45;;;;;;;7.88;4.30;;;;;;;;;;5010245;28;20304;-64
2022/10/10 09:39:15;;;;;;;8.68;4.90;;;;;;;;;;5007899;28;20652;-64
2022/10/10 09:41:45;;;;;;;10.30;4.90;;;;;;;;;;5002115;28;20212;-64
2022/10/10 09:44:10;;;;;;;10.73;5.10;;;;;;;;;;5000178;28;20212;-64
2022/10/10 09:46:36;;;;;;;10.10;4.57;;;;;;;;;;5002674;28;20471;-64
2022/10/10 09:49:01;;;;;;;13.50;5.03;;;;;;;;;;5007705;28;20675;-64
2022/10/10 09:51:27;;;;;;;9.75;4.60;;;;;;;;;;5009415;28;20216;-63
2022/10/10 09:53:52;;;;;;;10.70;4.72;;;;;;;;;;5008000;28;20231;-64
2022/10/10 09:56:19;;;;;;;9.75;4.47;;;;;;;;;;5008433;28;20692;-64
2022/10/10 09:58:45;;;;;;;13.38;5.03;;;;;;;;;;5009731;28;20601;-63
2022/10/10 10:01:12;;;;;;;13.38;5.60;;;;;;;;;;5008843;28;20600;-64
2022/10/10 10:03:37;;;;;;;9.98;4.97;;;;;;;;;;5005893;28;20216;-63
2022/10/10 10:06:03;;;;;;;11.93;5.70;;;;;;;;;;5001153;28;20641;-64
2022/10/10 10:08:29;;;;;;;12.43;4.82;;;;;;;;;;5001381;28;20233;-63
2022/10/10 10:10:57;;;;;;;8.57;5.15;;;;;;;;;;5005184;28;20220;-63
2022/10/10 10:13:24;;;;;;;12.88;5.25;;;;;;;;;;5009201;28;20613;-64
2022/10/10 10:15:51;;;;;;;10.63;4.75;;;;;;;;;;5007261;28;20699;-63
2022/10/10 10:18:18;;;;;;;11.30;5.55;;;;;;;;;;5007739;28;20216;-63
2022/10/10 10:20:44;;;;;;;7.90;4.70;;;;;;;;;;5009445;28;20684;-64
2022/10/10 10:23:27;;;;;;;12.80;5.53;;;;;;;;;;5007677;28;20235;-64
2022/10/10 10:25:59;;;;;;;11.27;4.80;;;;;;;;;;5005581;28;20687;-64
2022/10/10 10:28:24;;;;;;;8.50;4.72;;;;;;;;;;5000644;28;20225;-64
2022/10/10 10:30:51;;;;;;;11.98;4.70;;;;;;;;;;5001187;28;20227;-64
2022/10/10 10:33:17;;;;;;;11.02;4.53;;;;;;;;;;5003293;28;20263;-64
2022/10/10 10:35:45;;;;;;;11.05;4.80;;;;;;;;;;5008770;28;20272;-64
2022/10/10 10:38:12;;;;;;;10.90;5.03;;;;;;;;;;5007114;28;20212;-64
2022/10/10 10:40:39;;;;;;;12.32;5.15;;;;;;;;;;5008935;28;20224;-64
2022/10/10 10:43:10;;;;;;;11.02;4.85;;;;;;;;;;5006994;28;20679;-64
2022/10/10 10:45:38;;;;;;;11.98;5.25;;;;;;;;;;5007897;28;20220;-64
2022/10/10 10:48:05;;;;;;;12.90;5.15;;;;;;;;;;5007516;28;20256;-64
2022/10/10 10:50:43;;;;;;;9.00;4.63;;;;;;;;;;5000339;28;20232;-64
2022/10/10 10:53:17;;;;;;;12.45;5.20;;;;;;;;;;5000425;28;20219;-64
2022/10/10 10:55:45;;;;;;;12.43;5.13;;;;;;;;;;5001601;28;20265;-64
2022/10/10 10:58:11;;;;;;;12.38;4.90;;;;;;;;;;5006688;28;20247;-64
2022/10/10 11:00:42;;;;;;;10.30;5.10;;;;;;;;;;5008869;28;20220;-64
2022/10/10 11:03:07;;;;;;;10.35;5.28;;;;;;;;;;5008476;28;20299;-64
2022/10/10 11:05:33;;;;;;;10.88;5.35;;;;;;;;;;5007531;28;20230;-64
2022/10/10 11:08:04;;;;;;;10.32;5.15;;;;;;;;;;5007820;28;20658;-63
2022/10/10 11:10:33;;;;;;;13.55;5.00;;;;;;;;;;5008190;28;20216;-63
2022/10/10 11:13:02;;;;;;;13.98;4.80;;;;;;;;;;4998825;28;20177;-63
2022/10/10 11:15:28;;;;;;;12.10;5.47;;;;;;;;;;5001227;28;20287;-63
2022/10/10 11:17:57;;;;;;;11.95;4.80;;;;;;;;;;5001410;28;20177;-63
2022/10/10 11:20:23;;;;;;;10.27;5.20;;;;;;;;;;5008225;28;20173;-63
2022/10/10 11:22:50;;;;;;;10.93;5.80;;;;;;;;;;5009579;28;20243;-62
2022/10/10 11:25:18;;;;;;;10.00;4.82;;;;;;;;;;5007990;28;20180;-63
2022/10/10 11:27:45;;;;;;;9.25;5.18;;;;;;;;;;5007426;28;20327;-63
2022/10/10 11:30:17;;;;;;;13.02;4.93;;;;;;;;;;5008982;28;20180;-63
2022/10/10 11:32:47;;;;;;;9.48;4.40;;;;;;;;;;5006989;28;20271;-63
2022/10/10 11:35:23;;;;;;;9.63;4.72;;;;;;;;;;5001157;28;20200;-63
2022/10/10 11:37:51;;;;;;;9.77;5.00;;;;;;;;;;4999696;28;20172;-63
2022/10/10 11:40:25;;;;;;;10.63;4.65;;;;;;;;;;4999979;28;20173;-63
2022/10/10 11:42:52;;;;;;;10.00;4.65;;;;;;;;;;5006650;28;20314;-63
2022/10/10 11:45:20;;;;;;;11.25;4.07;;;;;;;;;;5007623;28;20657;-63
2022/10/10 11:47:48;;;;;;;10.40;5.13;;;;;;;;;;5007741;28;20240;-63
2022/10/10 11:50:17;;;;;;;9.45;4.53;;;;;;;;;;5007632;28;20263;-63
2022/10/10 11:52:46;;;;;;;10.77;4.60;;;;;;;;;;5008640;28;20172;-63
2022/10/10 11:55:12;;;;;;;11.77;4.28;;;;;;;;;;5005515;28;20582;-63
2022/10/10 11:57:37;;;;;;;8.48;4.25;;;;;;;;;;5001543;28;20191;-63
2022/10/10 12:00:04;;;;;;;9.18;4.25;;;;;;;;;;5000082;28;20232;-62
2022/10/10 12:02:30;;;;;;;11.55;4.50;;;;;;;;;;5000750;28;20235;-62
2022/10/10 12:04:55;;;;;;;9.23;4.60;;;;;;;;;;5005949;28;20195;-62
2022/10/10 12:07:24;;;;;;;10.82;4.30;;;;;;;;;;5007991;28;20216;-63
2022/10/10 12:09:51;;;;;;;9.60;4.50;;;;;;;;;;5007763;28;20185;-62
2022/10/10 12:12:21;;;;;;;11.07;4.30;;;;;;;;;;5007456;28;20177;-63
2022/10/10 12:14:52;;;;;;;9.70;4.28;;;;;;;;;;5006758;28;20173;-63
2022/10/10 12:17:18;;;;;;;7.47;4.15;;;;;;;;;;5006539;28;20268;-63
2022/10/10 12:19:45;;;;;;;7.68;4.07;;;;;;;;;;5002898;28;20173;-63
2022/10/10 12:22:17;;;;;;;8.57;4.20;;;;;;;;;;4999825;28;20648;-63
2022/10/10 12:25:06;;;;;;;9.25;4.60;;;;;;;;;;4999686;28;20679;-62
2022/10/10 12:27:42;;;;;;;12.57;5.15;;;;;;;;;;5006466;28;20212;-63
2022/10/10 12:30:07;;;;;;;12.02;5.15;;;;;;;;;;5007349;28;20191;-62
2022/10/10 12:32:39;;;;;;;9.85;4.68;;;;;;;;;;5008333;28;20180;-62
2022/10/10 12:35:25;;;;;;;10.32;4.80;;;;;;;;;;5006288;28;20290;-63
2022/10/10 12:38:04;;;;;;;8.70;4.40;;;;;;;;;;5007621;28;20188;-62
2022/10/10 12:40:29;;;;;;;12.98;5.07;;;;;;;;;;5008043;28;20190;-62
2022/10/10 12:42:55;;;;;;;11.50;5.18;;;;;;;;;;5000302;28;20184;-62
2022/10/10 12:45:29;;;;;;;9.77;4.68;;;;;;;;;;4999691;28;20188;-63
2022/10/10 12:47:55;;;;;;;9.40;4.10;;;;;;;;;;5001327;28;20206;-63
2022/10/10 12:50:21;;;;;;;12.32;4.70;;;;;;;;;;5006321;28;20180;-63
2022/10/10 12:52:47;;;;;;;9.75;3.85;;;;;;;;;;5007824;28;20176;-63
2022/10/10 12:55:18;;;;;;;9.93;4.50;;;;;;;;;;5007297;28;20181;-63
2022/10/10 12:57:44;;;;;;;8.23;3.70;;;;;;;;;;5007245;28;20168;-63
2022/10/10 13:00:16;;;;;;;9.32;3.70;;;;;;;;;;5010222;28;20236;-63
2022/10/10 13:02:43;;;;;;;11.55;4.47;;;;;;;;;;5009468;28;20189;-63
2022/10/10 13:05:09;;;;;;;9.77;3.75;;;;;;;;;;5011247;28;20628;-62
2022/10/10 13:07:34;;;;;;;9.43;4.00;;;;;;;;;;5013006;28;20215;-62
2022/10/10 13:10:05;;;;;;;9.15;4.03;;;;;;;;;;5012249;28;20526;-62
2022/10/10 13:12:31;;;;;;;10.27;4.10;;;;;;;;;;5011215;28;20169;-62
2022/10/10 13:14:56;;;;;;;11.27;4.57;;;;;;;;;;5012005;28;20248;-63
2022/10/10 13:17:22;;;;;;;16.27;4.13;;;;;;;;;;5012556;28;20219;-62
2022/10/10 13:19:48;;;;;;;13.25;5.10;;;;;;;;;;5013230;28;20172;-62
2022/10/10 13:22:13;;;;;;;11.82;4.32;;;;;;;;;;5013512;28;20271;-62
2022/10/10 13:24:40;;;;;;;12.30;4.85;;;;;;;;;;5012874;28;20272;-62
2022/10/10 13:27:05;;;;;;;9.18;4.43;;;;;;;;;;5011498;28;20258;-63
2022/10/10 13:29:31;;;;;;;10.35;4.30;;;;;;;;;;5013430;28;20169;-62
2022/10/10 13:31:58;;;;;;;11.65;4.13;;;;;;;;;;5013123;28;20173;-63
2022/10/10 13:34:24;;;;;;;11.48;4.78;;;;;;;;;;5013284;28;20169;-62
2022/10/10 13:36:51;;;;;;;12.07;4.68;;;;;;;;;;5013275;28;20227;-62
2022/10/10 13:39:16;;;;;;;10.57;4.40;;;;;;;;;;5011429;28;20177;-62
2022/10/10 13:41:43;;;;;;;10.27;4.88;;;;;;;;;;5011755;28;20173;-63
2022/10/10 13:44:12;;;;;;;9.25;4.40;;;;;;;;;;5021791;28;20172;-63
2022/10/10 13:46:37;;;;;;;11.73;4.53;;;;;;;;;;5019221;28;20185;-62
2022/10/10 13:49:11;;;;;;;13.27;5.70;;;;;;;;;;5008344;28;20211;-62
2022/10/10 13:51:40;;;;;;;10.98;4.75;;;;;;;;;;5006596;28;20179;-62
2022/10/10 13:54:25;;;;;;;11.88;5.00;;;;;;;;;;5005063;28;20680;-62
2022/10/10 13:56:51;;;;;;;12.13;4.97;;;;;;;;;;5006886;28;20165;-62
2022/10/10 13:59:16;;;;;;;14.63;5.40;;;;;;;;;;5006927;28;20595;-62
2022/10/10 14:01:43;;;;;;;12.23;5.00;;;;;;;;;;5005099;28;20169;-62
2022/10/10 14:04:11;;;;;;;11.65;4.82;;;;;;;;;;5007333;28;20183;-62
2022/10/10 14:06:36;;;;;;;11.93;4.88;;;;;;;;;;5005606;28;20205;-63
2022/10/10 14:09:05;;;;;;;10.93;4.78;;;;;;;;;;5007185;28;20536;-63
2022/10/10 14:11:31;;;;;;;12.00;4.90;;;;;;;;;;5013186;28;20248;-61
2022/10/10 14:14:03;;;;;;;11.05;5.20;;;;;;;;;;5007836;28;20261;-61
2022/10/10 14:16:28;;;;;;;10.10;4.70;;;;;;;;;;5006355;28;20267;-61
2022/10/10 14:18:53;;;;;;;11.57;4.70;;;;;;;;;;4979722;28;20232;-61
2022/10/10 14:21:19;;;;;;;14.98;5.00;;;;;;;;;;5012936;28;20214;-63
2022/10/10 14:23:44;;;;;;;11.23;5.60;;;;;;;;;;5016287;28;20208;-61
2022/10/10 14:26:11;;;;;;;15.30;6.50;;;;;;;;;;5008268;28;20213;-61
2022/10/10 14:28:37;;;;;;;13.02;5.28;;;;;;;;;;5006384;28;20232;-62
2022/10/10 14:31:02;;;;;;;10.63;5.40;;;;;;;;;;4993295;28;20224;-62
2022/10/10 14:33:28;;;;;;;14.32;5.90;;;;;;;;;;4991958;28;20227;-62
2022/10/10 14:35:54;;;;;;;13.60;6.18;;;;;;;;;;4992399;28;20209;-62
2022/10/10 14:38:20;;;;;;;12.68;6.15;;;;;;;;;;4997685;28;20297;-64